createdAt,value
2022-12-26T00:00:58.624Z,2.28
2022-12-26T00:03:26.126Z,2.15
2022-12-26T00:05:53.285Z,2.14
2022-12-26T00:08:20.186Z,1.46
2022-12-26T00:10:47.085Z,1.06
2022-12-26T00:13:38.570Z,1.12
2022-12-26T00:16:12.021Z,1.19
2022-12-26T00:18:39.792Z,1.11
2022-12-26T00:21:08.934Z,1.11
2022-12-26T00:23:36.962Z,1.25
2022-12-26T00:26:05.848Z,1.41
2022-12-26T00:28:33.105Z,1.50
2022-12-26T00:31:04.557Z,1.74
2022-12-26T00:33:31.630Z,1.88
2022-12-26T00:36:07.786Z,1.85
2022-12-26T00:38:37.485Z,1.85
2022-12-26T00:41:05.202Z,1.75
2022-12-26T00:43:32.788Z,1.72
2022-12-26T00:46:00.697Z,1.79
2022-12-26T00:48:28.119Z,1.67
2022-12-26T00:50:55.538Z,1.45
2022-12-26T00:53:23.473Z,1.14
2022-12-26T00:55:51.609Z,1.01
2022-12-26T00:58:19.765Z,0.90
2022-12-26T01:00:47.063Z,0.85
2022-12-26T01:03:14.592Z,0.88
2022-12-26T01:05:46.962Z,1.16
2022-12-26T01:08:21.755Z,1.35
2022-12-26T01:10:50.864Z,1.38
2022-12-26T01:13:17.799Z,1.48
2022-12-26T01:15:52.403Z,1.54
2022-12-26T01:18:20.217Z,1.55
2022-12-26T01:20:47.633Z,1.46
2022-12-26T01:23:14.863Z,1.39
2022-12-26T01:26:15.045Z,1.23
2022-12-26T01:28:28.931Z,1.21
2022-12-26T01:30:55.845Z,1.39
2022-12-26T01:33:22.757Z,1.90
2022-12-26T01:35:53.491Z,2.05
2022-12-26T01:38:21.698Z,2.04
2022-12-26T01:40:49.701Z,2.10
2022-12-26T01:43:17.301Z,2.13
2022-12-26T01:45:50.909Z,2.06
2022-12-26T01:48:20.549Z,1.96
2022-12-26T01:50:53.531Z,1.80
2022-12-26T01:53:22.547Z,1.72
2022-12-26T01:55:57.076Z,1.16
2022-12-26T01:58:30.813Z,1.14
2022-12-26T02:00:58.241Z,1.30
2022-12-26T02:03:43.720Z,1.56
2022-12-26T02:06:13.468Z,1.79
2022-12-26T02:08:40.738Z,1.78
2022-12-26T02:11:19.521Z,1.66
2022-12-26T02:13:46.668Z,1.65
2022-12-26T02:16:16.686Z,1.64
2022-12-26T02:18:44.262Z,1.57
2022-12-26T02:21:11.091Z,1.36
2022-12-26T02:23:49.880Z,1.22
2022-12-26T02:27:01.252Z,1.43
2022-12-26T02:29:46.996Z,1.45
2022-12-26T02:32:28.743Z,1.42
2022-12-26T02:35:37.563Z,1.40
2022-12-26T02:38:10.251Z,1.30
2022-12-26T02:40:52.896Z,1.08
2022-12-26T02:43:46.215Z,1.01
2022-12-26T02:46:56.751Z,1.30
2022-12-26T02:49:32.694Z,1.36
2022-12-26T02:52:30.370Z,1.41
2022-12-26T02:55:39.897Z,1.33
2022-12-26T02:58:41.649Z,1.32
2022-12-26T03:01:51.139Z,1.22
2022-12-26T03:04:41.271Z,1.04
2022-12-26T03:07:34.926Z,1.00
2022-12-26T03:10:25.137Z,0.95
2022-12-26T03:13:11.509Z,0.86
2022-12-26T03:16:07.397Z,0.66
2022-12-26T03:18:57.148Z,0.29
2022-12-26T03:21:31.714Z,0.31
2022-12-26T03:23:58.695Z,0.25
2022-12-26T03:26:41.232Z,0.32
2022-12-26T03:29:38.095Z,0.64
2022-12-26T03:32:08.817Z,0.96
2022-12-26T03:34:43.720Z,0.92
2022-12-26T03:37:49.195Z,0.70
2022-12-26T03:40:54.294Z,0.60
2022-12-26T03:44:17.464Z,0.15
2022-12-26T03:47:28.363Z,0.20
2022-12-26T03:50:18.644Z,0.32
2022-12-26T03:53:22.000Z,0.14
2022-12-26T03:56:14.277Z,0.24
2022-12-26T03:59:15.666Z,0.56
2022-12-26T04:02:04.961Z,0.86
2022-12-26T04:04:55.597Z,0.89
2022-12-26T04:08:03.920Z,0.81
2022-12-26T04:10:52.912Z,0.70
2022-12-26T04:13:47.610Z,0.56
2022-12-26T04:16:43.801Z,0.49
2022-12-26T04:19:32.215Z,0.26
2022-12-26T04:22:37.505Z,0.13
2022-12-26T04:25:48.553Z,0.28
2022-12-26T04:28:37.954Z,0.41
2022-12-26T04:31:35.828Z,0.63
2022-12-26T04:34:28.099Z,0.46
2022-12-26T04:37:21.984Z,0.22
2022-12-26T04:40:10.106Z,0.12
2022-12-26T04:42:56.988Z,0.16
2022-12-26T04:45:24.175Z,0.15
2022-12-26T04:48:10.151Z,0.30
2022-12-26T04:50:37.289Z,0.42
2022-12-26T04:53:04.463Z,0.67
2022-12-26T04:55:33.381Z,0.71
2022-12-26T04:58:00.571Z,0.73
2022-12-26T05:00:28.663Z,0.79
2022-12-26T05:03:18.970Z,1.03
2022-12-26T05:06:14.026Z,1.15
2022-12-26T05:09:05.149Z,1.14
2022-12-26T05:11:34.568Z,1.17
2022-12-26T05:14:01.835Z,1.24
2022-12-26T05:16:47.883Z,1.28
2022-12-26T05:19:36.047Z,1.26
2022-12-26T05:22:23.152Z,1.36
2022-12-26T05:25:08.822Z,1.45
2022-12-26T05:27:58.211Z,1.14
2022-12-26T05:30:25.510Z,0.91
2022-12-26T05:33:11.235Z,0.69
2022-12-26T05:35:39.600Z,0.88
2022-12-26T05:38:06.641Z,0.76
2022-12-26T05:40:33.562Z,0.52
2022-12-26T05:43:00.583Z,0.42
2022-12-26T05:45:27.548Z,0.67
2022-12-26T05:48:01.798Z,0.77
2022-12-26T05:50:29.169Z,0.74
2022-12-26T05:52:59.912Z,0.91
2022-12-26T05:55:27.111Z,0.89
2022-12-26T05:57:53.994Z,0.87
2022-12-26T06:00:21.431Z,0.90
2022-12-26T06:02:48.725Z,0.98
2022-12-26T06:05:15.994Z,1.00
2022-12-26T06:07:42.958Z,0.89
2022-12-26T06:10:10.754Z,0.82
2022-12-26T06:12:38.948Z,0.83
2022-12-26T06:15:06.620Z,0.97
2022-12-26T06:17:33.585Z,1.18
2022-12-26T06:20:00.648Z,1.29
2022-12-26T06:22:29.912Z,1.38
2022-12-26T06:24:57.119Z,1.43
2022-12-26T06:27:24.128Z,1.44
2022-12-26T06:29:51.064Z,1.56
2022-12-26T06:32:18.003Z,1.56
2022-12-26T06:34:44.944Z,1.79
2022-12-26T06:37:11.832Z,2.01
2022-12-26T06:39:38.725Z,2.17
2022-12-26T06:42:05.723Z,2.35
2022-12-26T06:44:32.603Z,2.78
2022-12-26T06:46:59.596Z,2.60
2022-12-26T06:49:32.714Z,2.56
2022-12-26T06:52:00.437Z,2.65
2022-12-26T06:54:27.335Z,2.76
2022-12-26T06:56:54.402Z,2.93
2022-12-26T06:59:21.409Z,3.18
2022-12-26T07:01:48.445Z,3.36
2022-12-26T07:04:15.500Z,3.48
2022-12-26T07:06:42.713Z,3.61
2022-12-26T07:09:14.688Z,3.74
2022-12-26T07:11:44.506Z,3.81
2022-12-26T07:14:12.070Z,3.89
2022-12-26T07:16:41.180Z,3.87
2022-12-26T07:19:10.271Z,3.87
2022-12-26T07:21:40.844Z,3.95
2022-12-26T07:24:17.780Z,4.06
2022-12-26T07:26:46.410Z,4.11
2022-12-26T07:29:14.143Z,4.22
2022-12-26T07:31:41.773Z,4.35
2022-12-26T07:34:09.168Z,4.50
2022-12-26T07:36:36.126Z,4.62
2022-12-26T07:39:03.202Z,4.75
2022-12-26T07:41:48.731Z,4.81
2022-12-26T07:44:15.662Z,4.90
2022-12-26T07:46:43.539Z,5.02
2022-12-26T07:49:12.573Z,5.13
2022-12-26T07:51:39.792Z,5.24
2022-12-26T07:54:11.093Z,5.36
2022-12-26T07:56:38.243Z,5.39
2022-12-26T07:59:05.230Z,5.50
2022-12-26T08:01:32.457Z,5.62
2022-12-26T08:03:59.611Z,5.68
2022-12-26T08:06:26.552Z,5.81
2022-12-26T08:08:53.456Z,6.22
2022-12-26T08:11:24.470Z,6.19
2022-12-26T08:13:52.760Z,6.24
2022-12-26T08:16:20.875Z,6.34
2022-12-26T08:18:47.939Z,6.45
2022-12-26T08:21:14.923Z,6.72
2022-12-26T08:23:41.938Z,7.05
2022-12-26T08:26:11.726Z,7.08
2022-12-26T08:28:42.228Z,7.27
2022-12-26T08:31:10.625Z,7.40
2022-12-26T08:33:37.654Z,7.49
2022-12-26T08:36:07.234Z,7.51
2022-12-26T08:38:34.360Z,8.05
2022-12-26T08:41:01.782Z,8.26
2022-12-26T08:43:53.222Z,8.84
2022-12-26T08:46:16.268Z,9.16
2022-12-26T08:48:43.574Z,9.39
2022-12-26T08:51:16.114Z,9.55
2022-12-26T08:53:43.458Z,9.85
2022-12-26T08:56:16.668Z,9.76
2022-12-26T08:58:44.057Z,10.08
2022-12-26T09:01:16.866Z,10.19
2022-12-26T09:03:45.025Z,10.43
2022-12-26T09:06:13.771Z,10.33
2022-12-26T09:08:41.838Z,10.40
2022-12-26T09:11:16.075Z,10.12
2022-12-26T09:13:43.665Z,10.19
2022-12-26T09:16:16.379Z,10.38
2022-12-26T09:18:44.613Z,10.25
2022-12-26T09:21:13.382Z,10.14
2022-12-26T09:23:41.487Z,10.19
2022-12-26T09:26:11.695Z,9.72
2022-12-26T09:28:38.953Z,10.05
2022-12-26T09:31:08.379Z,10.28
2022-12-26T09:33:37.815Z,10.37
2022-12-26T09:36:14.472Z,10.78
2022-12-26T09:38:42.975Z,10.56
2022-12-26T09:41:15.449Z,10.47
2022-12-26T09:43:54.846Z,10.19
2022-12-26T10:17:39.728Z,9.27
2022-12-26T10:20:15.670Z,9.59
2022-12-26T10:22:57.784Z,9.91
2022-12-26T10:25:42.472Z,10.23
2022-12-26T10:28:28.592Z,10.05
2022-12-26T10:30:57.981Z,10.02
2022-12-26T10:33:49.367Z,10.46
2022-12-26T10:36:40.673Z,10.56
2022-12-26T10:39:22.537Z,10.77
2022-12-26T10:41:56.991Z,10.92
2022-12-26T10:44:27.896Z,10.85
2022-12-26T10:47:19.431Z,10.58
2022-12-26T10:49:47.900Z,10.71
2022-12-26T10:52:17.789Z,10.88
2022-12-26T10:54:51.252Z,11.07
2022-12-26T10:57:41.643Z,11.34
2022-12-26T11:00:25.461Z,11.12
2022-12-26T11:03:07.780Z,11.11
2022-12-26T11:06:07.067Z,10.98
2022-12-26T11:08:43.263Z,11.22
2022-12-26T11:11:21.171Z,11.20
2022-12-26T11:14:01.807Z,11.28
2022-12-26T11:16:34.112Z,11.08
2022-12-26T11:19:01.734Z,11.14
2022-12-26T11:21:31.012Z,11.06
2022-12-26T11:24:21.036Z,11.25
2022-12-26T11:26:48.691Z,11.26
2022-12-26T11:29:19.184Z,11.14
2022-12-26T11:31:59.471Z,10.88
2022-12-26T11:34:46.306Z,10.87
2022-12-26T11:37:23.887Z,10.81
2022-12-26T11:39:52.475Z,10.50
2022-12-26T11:42:23.836Z,10.74
2022-12-26T11:44:55.325Z,10.58
2022-12-26T11:47:29.886Z,10.54
2022-12-26T11:50:25.212Z,10.37
2022-12-26T11:52:56.686Z,10.28
2022-12-26T11:55:26.646Z,10.25
2022-12-26T11:57:58.857Z,10.31
2022-12-26T12:00:27.268Z,9.95
2022-12-26T12:02:54.979Z,10.28
2022-12-26T12:05:45.141Z,10.11
2022-12-26T12:08:20.905Z,10.06
2022-12-26T12:11:09.386Z,10.09
2022-12-26T12:13:51.293Z,10.14
2022-12-26T12:16:40.280Z,10.09
2022-12-26T12:19:23.304Z,10.02
2022-12-26T12:22:19.708Z,9.65
2022-12-26T12:24:55.680Z,9.85
2022-12-26T12:27:32.190Z,9.95
2022-12-26T12:30:11.030Z,9.69
2022-12-26T12:33:01.259Z,9.90
2022-12-26T12:35:36.846Z,9.71
2022-12-26T12:38:22.342Z,9.73
2022-12-26T12:41:11.037Z,9.53
2022-12-26T12:43:42.283Z,9.63
2022-12-26T12:46:15.585Z,9.52
2022-12-26T12:48:55.864Z,9.59
2022-12-26T12:51:50.463Z,9.46
2022-12-26T12:54:41.515Z,9.30
2022-12-26T12:57:17.439Z,9.28
2022-12-26T13:00:14.922Z,9.21
2022-12-26T13:02:55.759Z,9.21
2022-12-26T13:05:43.790Z,9.22
2022-12-26T13:08:30.922Z,9.16
2022-12-26T13:11:16.778Z,9.22
2022-12-26T13:13:53.716Z,8.88
2022-12-26T13:16:29.006Z,9.05
2022-12-26T13:19:07.005Z,9.01
2022-12-26T13:21:37.532Z,8.99
2022-12-26T13:24:25.445Z,9.17
2022-12-26T13:27:08.072Z,9.17
2022-12-26T13:29:39.167Z,9.07
2022-12-26T13:32:31.403Z,8.95
2022-12-26T13:35:01.181Z,8.83
2022-12-26T13:37:40.289Z,8.58
2022-12-26T13:40:13.537Z,8.72
2022-12-26T13:43:08.660Z,8.55
2022-12-26T13:45:35.669Z,8.59
2022-12-26T13:48:18.007Z,8.59
2022-12-26T13:50:56.005Z,8.46
2022-12-26T13:53:26.542Z,8.26
2022-12-26T13:56:03.427Z,8.24
2022-12-26T13:58:48.807Z,8.14
2022-12-26T14:01:30.536Z,8.06
2022-12-26T14:04:34.584Z,8.00
2022-12-26T14:07:28.916Z,7.91
2022-12-26T14:10:09.936Z,7.86
2022-12-26T14:13:27.859Z,7.87
2022-12-26T14:16:05.804Z,7.75
2022-12-26T14:18:44.204Z,7.68
2022-12-26T14:21:29.478Z,7.65
2022-12-26T14:24:13.147Z,7.51
2022-12-26T14:26:55.754Z,7.47
2022-12-26T14:29:34.355Z,7.48
2022-12-26T14:32:21.504Z,7.38
2022-12-26T14:34:51.215Z,7.26
2022-12-26T14:37:30.362Z,7.14
2022-12-26T14:39:57.305Z,7.17
2022-12-26T14:42:44.791Z,7.16
2022-12-26T14:45:31.825Z,7.12
2022-12-26T14:47:59.189Z,7.07
2022-12-26T14:50:42.383Z,6.93
2022-12-26T14:53:27.538Z,6.98
2022-12-26T14:56:14.098Z,6.97
2022-12-26T14:58:48.720Z,6.93
2022-12-26T15:01:15.980Z,6.96
2022-12-26T15:04:02.323Z,6.93
2022-12-26T15:06:39.534Z,6.83
2022-12-26T15:09:15.323Z,6.90
2022-12-26T15:12:32.818Z,6.95
2022-12-26T15:15:08.711Z,6.84
2022-12-26T15:17:41.662Z,6.80
2022-12-26T15:20:37.753Z,6.88
2022-12-26T15:23:38.464Z,6.92
2022-12-26T15:26:31.336Z,6.81
2022-12-26T15:29:16.221Z,6.88
2022-12-26T15:32:04.243Z,6.90
2022-12-26T15:34:58.728Z,6.92
2022-12-26T15:37:42.137Z,6.95
2022-12-26T15:40:16.223Z,6.94
2022-12-26T15:42:45.821Z,6.94
2022-12-26T15:45:37.120Z,6.98
2022-12-26T15:48:25.855Z,6.90
2022-12-26T15:51:31.273Z,6.92
2022-12-26T15:54:16.983Z,6.83
2022-12-26T15:56:56.479Z,6.80
2022-12-26T16:00:03.844Z,6.84
2022-12-26T16:03:13.769Z,6.88
2022-12-26T16:05:44.925Z,6.87
2022-12-26T16:08:54.441Z,6.94
2022-12-26T16:11:29.636Z,6.95
2022-12-26T16:14:02.691Z,6.97
2022-12-26T16:16:33.601Z,6.97
2022-12-26T16:19:22.949Z,6.96
2022-12-26T16:22:15.941Z,6.97
2022-12-26T16:24:44.284Z,6.95
2022-12-26T16:27:16.829Z,6.96
2022-12-26T16:29:51.613Z,6.97
2022-12-26T16:32:21.672Z,6.87
2022-12-26T16:34:49.688Z,6.91
2022-12-26T16:37:24.304Z,6.91
2022-12-26T16:40:06.681Z,6.86
2022-12-26T16:42:33.941Z,6.88
2022-12-26T16:45:01.859Z,6.90
2022-12-26T16:47:32.015Z,6.90
2022-12-26T16:50:00.091Z,6.86
2022-12-26T16:52:45.848Z,6.88
2022-12-26T16:55:22.959Z,6.86
2022-12-26T16:57:52.569Z,6.85
2022-12-26T17:00:21.881Z,6.83
2022-12-26T17:02:53.464Z,6.79
2022-12-26T17:05:26.907Z,6.82
2022-12-26T17:07:56.187Z,6.76
2022-12-26T17:10:27.943Z,6.82
2022-12-26T17:12:57.881Z,6.85
2022-12-26T17:15:30.002Z,6.86
2022-12-26T17:17:59.049Z,6.81
2022-12-26T17:20:26.150Z,6.72
2022-12-26T17:22:57.331Z,6.69
2022-12-26T17:25:29.681Z,6.64
2022-12-26T17:28:28.265Z,6.61
2022-12-26T17:30:55.389Z,6.54
2022-12-26T17:33:29.182Z,6.54
2022-12-26T17:38:48.855Z,6.46
2022-12-26T17:41:17.114Z,6.44
2022-12-26T17:43:45.547Z,6.48
2022-12-26T17:46:15.932Z,6.47
2022-12-26T17:48:43.758Z,6.36
2022-12-26T17:51:16.565Z,6.41
2022-12-26T17:53:48.645Z,6.24
2022-12-26T17:56:20.273Z,6.29
2022-12-26T17:58:48.279Z,6.24
2022-12-26T18:01:20.725Z,6.18
2022-12-26T18:03:48.749Z,6.23
2022-12-26T18:06:17.342Z,6.17
2022-12-26T18:08:45.146Z,6.23
2022-12-26T18:11:14.443Z,6.26
2022-12-26T18:13:42.385Z,6.18
2022-12-26T18:16:16.728Z,6.16
2022-12-26T18:18:45.090Z,6.11
2022-12-26T18:21:14.479Z,6.16
2022-12-26T18:23:42.004Z,6.15
2022-12-26T18:26:25.187Z,6.12
2022-12-26T18:28:52.747Z,6.16
2022-12-26T18:31:20.425Z,6.19
2022-12-26T18:33:47.443Z,6.25
2022-12-26T18:36:16.132Z,6.22
2022-12-26T18:38:43.489Z,6.15
2022-12-26T18:41:15.437Z,6.19
2022-12-26T18:43:42.587Z,6.11
2022-12-26T18:46:30.286Z,6.16
2022-12-26T18:48:57.655Z,6.08
2022-12-26T18:51:26.123Z,6.13
2022-12-26T18:53:53.297Z,6.13
2022-12-26T18:56:22.246Z,6.17
2022-12-26T18:58:57.422Z,6.18
2022-12-26T19:01:25.783Z,6.21
2022-12-26T19:03:53.971Z,6.12
2022-12-26T19:06:27.049Z,6.03
2022-12-26T19:08:54.000Z,6.11
2022-12-26T19:11:21.622Z,6.11
2022-12-26T19:13:48.934Z,6.12
2022-12-26T19:16:16.103Z,6.06
2022-12-26T19:18:43.123Z,6.10
2022-12-26T19:21:14.127Z,6.09
2022-12-26T19:23:42.063Z,6.12
2022-12-26T19:26:14.366Z,6.14
2022-12-26T19:28:41.421Z,6.12
2022-12-26T19:31:14.053Z,6.15
2022-12-26T19:33:41.191Z,6.14
2022-12-26T19:36:09.738Z,6.19
2022-12-26T19:38:37.285Z,6.25
2022-12-26T19:41:10.719Z,6.22
2022-12-26T19:43:38.458Z,6.26
2022-12-26T19:46:08.370Z,6.24
2022-12-26T19:48:36.872Z,6.24
2022-12-26T19:51:06.610Z,6.31
2022-12-26T19:53:34.641Z,6.26
2022-12-26T19:56:07.903Z,6.28
2022-12-26T19:58:34.800Z,6.32
2022-12-26T20:01:09.302Z,6.37
2022-12-26T20:03:37.110Z,6.34
2022-12-26T20:06:16.613Z,6.40
2022-12-26T20:08:45.216Z,6.40
2022-12-26T20:11:15.703Z,6.37
2022-12-26T20:13:44.354Z,6.42
2022-12-26T20:16:37.414Z,6.40
2022-12-26T20:19:01.664Z,6.36
2022-12-26T20:21:28.606Z,6.41
2022-12-26T20:24:01.353Z,6.42
2022-12-26T20:26:29.091Z,6.41
2022-12-26T20:28:58.517Z,6.45
2022-12-26T20:31:25.486Z,6.47
2022-12-26T20:33:52.863Z,6.44
2022-12-26T20:36:23.281Z,6.44
2022-12-26T20:38:58.660Z,6.45
2022-12-26T20:41:26.975Z,6.37
2022-12-26T20:43:54.205Z,6.32
2022-12-26T20:46:23.671Z,5.61
2022-12-26T20:48:51.132Z,5.78
2022-12-26T20:51:21.460Z,6.03
2022-12-26T20:53:48.326Z,5.90
2022-12-26T20:56:15.478Z,5.38
2022-12-26T20:58:42.648Z,5.36
2022-12-26T21:01:21.386Z,5.26
2022-12-26T21:03:51.724Z,5.67
2022-12-26T21:06:22.584Z,5.34
2022-12-26T21:08:51.263Z,5.69
2022-12-26T21:11:27.324Z,5.93
2022-12-26T21:13:59.869Z,5.26
2022-12-26T21:16:30.674Z,5.62
2022-12-26T21:18:58.231Z,5.57
2022-12-26T21:21:37.489Z,5.57
2022-12-26T21:24:07.495Z,5.50
2022-12-26T21:26:40.041Z,5.68
2022-12-26T21:29:09.311Z,5.96
2022-12-26T21:31:37.883Z,5.71
2022-12-26T21:34:05.333Z,5.43
2022-12-26T21:36:33.953Z,5.80
2022-12-26T21:39:05.876Z,5.74
2022-12-26T21:41:32.891Z,5.74
2022-12-26T21:43:59.865Z,5.48
2022-12-26T21:46:27.114Z,5.72
2022-12-26T21:48:55.489Z,5.77
2022-12-26T21:51:28.954Z,5.48
2022-12-26T21:54:15.793Z,5.79
2022-12-26T21:56:42.955Z,5.43
2022-12-26T21:59:28.430Z,5.89
2022-12-26T22:01:55.645Z,5.71
2022-12-26T22:04:23.912Z,5.92
2022-12-26T22:06:52.638Z,5.85
2022-12-26T22:09:19.746Z,5.87
2022-12-26T22:12:05.699Z,5.98
2022-12-26T22:14:32.699Z,6.01
2022-12-26T22:16:59.656Z,6.16
2022-12-26T22:19:26.594Z,6.08
2022-12-26T22:21:54.980Z,6.04
2022-12-26T22:24:22.594Z,6.04
2022-12-26T22:26:49.651Z,6.20
2022-12-26T22:29:17.098Z,6.37
2022-12-26T22:31:44.056Z,6.47
2022-12-26T22:34:13.968Z,6.46
2022-12-26T22:36:42.025Z,6.46
2022-12-26T22:39:13.335Z,6.52
2022-12-26T22:41:40.296Z,6.63
2022-12-26T22:44:12.485Z,6.41
2022-12-26T22:46:39.712Z,6.42
2022-12-26T22:49:06.727Z,6.40
2022-12-26T22:51:33.684Z,6.56
2022-12-26T22:54:01.894Z,6.47
2022-12-26T22:56:29.646Z,6.73
2022-12-26T22:59:03.110Z,6.62
2022-12-26T23:01:30.425Z,6.37
2022-12-26T23:03:57.854Z,6.38
2022-12-26T23:06:31.009Z,6.49
2022-12-26T23:09:01.296Z,6.55
2022-12-26T23:11:34.700Z,6.41
2022-12-26T23:14:05.067Z,6.56
2022-12-26T23:16:58.563Z,6.68
2022-12-26T23:20:07.159Z,6.41
2022-12-26T23:22:34.434Z,6.64
2022-12-26T23:25:01.305Z,6.40
2022-12-26T23:27:47.157Z,6.44
2022-12-26T23:30:20.279Z,6.54
2022-12-26T23:32:50.940Z,6.47
2022-12-26T23:35:19.647Z,6.46
2022-12-26T23:37:46.846Z,6.57
2022-12-26T23:40:18.017Z,6.56
2022-12-26T23:42:45.554Z,6.51
2022-12-26T23:45:14.177Z,6.51
2022-12-26T23:47:44.349Z,6.40
2022-12-26T23:50:13.104Z,6.30
2022-12-26T23:52:40.706Z,6.15
2022-12-26T23:55:08.078Z,6.17
2022-12-26T23:57:34.979Z,6.34
